createdAt,value
2022-09-26T00:00:33.706Z,12.00
2022-09-26T00:05:37.050Z,14.07
2022-09-26T00:10:38.691Z,16.17
2022-09-26T00:15:40.346Z,12.55
2022-09-26T00:20:41.988Z,13.00
2022-09-26T00:25:50.939Z,16.52
2022-09-26T00:30:53.077Z,12.38
2022-09-26T00:35:55.811Z,17.10
2022-09-26T00:40:57.964Z,14.75
2022-09-26T00:46:05.094Z,12.87
2022-09-26T00:51:07.670Z,13.93
2022-09-26T00:56:15.991Z,16.42
2022-09-26T01:01:18.812Z,13.88
2022-09-26T01:11:23.812Z,14.93
2022-09-26T01:16:25.657Z,13.55
2022-09-26T01:27:07.722Z,15.23
2022-09-26T01:32:48.721Z,15.23
2022-09-26T01:38:09.393Z,24.55
2022-09-26T01:43:34.159Z,16.17
2022-09-26T01:48:44.407Z,17.33
2022-09-26T01:53:53.175Z,15.30
2022-09-26T01:58:56.861Z,17.90
2022-09-26T02:04:06.106Z,20.70
2022-09-26T02:09:12.705Z,17.98
2022-09-26T02:14:25.617Z,18.02
2022-09-26T02:20:02.367Z,20.73
2022-09-26T02:25:05.902Z,17.67
2022-09-26T02:30:08.602Z,16.35
2022-09-26T02:35:34.612Z,17.60
2022-09-26T02:41:02.977Z,18.83
2022-09-26T02:46:30.186Z,18.02
2022-09-26T02:52:08.861Z,17.70
2022-09-26T02:57:39.948Z,18.08
2022-09-26T03:02:50.950Z,19.27
2022-09-26T03:08:05.448Z,18.13
2022-09-26T03:13:13.247Z,19.48
2022-09-26T03:18:20.593Z,16.92
2022-09-26T03:23:26.972Z,18.60
2022-09-26T03:28:37.872Z,21.40
2022-09-26T03:33:40.879Z,19.67
2022-09-26T03:43:58.982Z,18.40
2022-09-26T03:49:13.289Z,21.30
2022-09-26T03:54:15.598Z,19.58
2022-09-26T03:59:17.492Z,18.92
2022-09-26T04:04:20.603Z,19.45
2022-09-26T04:09:23.556Z,21.87
2022-09-26T04:14:26.578Z,21.45
2022-09-26T04:19:31.811Z,21.80
2022-09-26T04:24:35.565Z,19.23
2022-09-26T04:29:37.402Z,23.93
2022-09-26T04:35:02.177Z,20.33
2022-09-26T04:40:04.634Z,22.00
2022-09-26T04:45:09.001Z,26.38
2022-09-26T04:50:10.786Z,28.10
2022-09-26T04:55:13.114Z,21.13
2022-09-26T05:00:15.857Z,22.10
2022-09-26T05:05:17.677Z,23.55
2022-09-26T05:10:19.508Z,24.00
2022-09-26T05:15:29.060Z,24.73
2022-09-26T05:20:31.767Z,21.07
2022-09-26T05:25:59.253Z,24.50
2022-09-26T05:31:01.445Z,25.85
2022-09-26T05:36:05.587Z,26.55
2022-09-26T05:41:07.520Z,25.95
2022-09-26T05:46:11.191Z,24.83
2022-09-26T05:51:21.090Z,28.02
2022-09-26T05:56:23.547Z,26.10
2022-09-26T06:01:38.688Z,26.88
2022-09-26T06:06:52.981Z,22.88
2022-09-26T06:11:54.706Z,30.10
2022-09-26T06:16:56.550Z,23.70
2022-09-26T06:21:58.178Z,21.45
2022-09-26T06:27:00.059Z,19.15
2022-09-26T06:32:01.826Z,25.85
2022-09-26T06:37:32.490Z,24.73
2022-09-26T06:42:38.077Z,21.40
2022-09-26T06:47:54.655Z,18.15
2022-09-26T06:53:10.500Z,21.83
2022-09-26T06:58:12.298Z,18.37
2022-09-26T07:03:29.552Z,16.27
2022-09-26T07:14:41.919Z,16.33
2022-09-26T07:19:53.651Z,13.40
2022-09-26T07:25:21.721Z,15.23
2022-09-26T07:30:23.877Z,19.00
2022-09-26T07:35:44.398Z,10.30
2022-09-26T07:40:46.308Z,12.23
2022-09-26T07:46:09.694Z,10.37
2022-09-26T07:51:12.558Z,14.02
2022-09-26T07:56:23.556Z,14.18
2022-09-26T08:01:38.188Z,16.80
2022-09-26T08:07:06.057Z,17.13
2022-09-26T08:12:14.432Z,15.98
2022-09-26T08:17:34.950Z,13.13
2022-09-26T08:22:37.859Z,15.32
2022-09-26T08:27:43.620Z,11.73
2022-09-26T08:32:54.066Z,11.98
2022-09-26T08:38:00.879Z,12.73
2022-09-26T08:43:42.941Z,11.25
2022-09-26T08:49:39.510Z,14.07
2022-09-26T08:54:44.487Z,10.43
2022-09-26T08:59:47.089Z,12.27
2022-09-26T09:05:10.292Z,7.85
2022-09-26T09:10:22.689Z,9.43
2022-09-26T09:15:46.287Z,8.90
2022-09-26T09:21:13.368Z,8.95
2022-09-26T09:32:31.163Z,8.50
2022-09-26T09:37:52.017Z,9.45
2022-09-26T09:43:13.449Z,6.70
2022-09-26T09:48:15.525Z,6.10
2022-09-26T09:53:32.304Z,6.53
2022-09-26T09:59:04.312Z,7.30
2022-09-26T10:04:37.428Z,6.75
2022-09-26T10:09:41.407Z,7.38
2022-09-26T10:15:07.542Z,9.85
2022-09-26T10:20:39.072Z,4.93
2022-09-26T10:25:48.239Z,5.35
2022-09-26T10:31:01.449Z,6.35
2022-09-26T10:36:31.345Z,7.60
2022-09-26T10:41:39.081Z,8.07
2022-09-26T10:46:45.295Z,6.97
2022-09-26T10:52:18.693Z,6.10
2022-09-26T10:57:33.621Z,8.15
2022-09-26T11:02:38.134Z,6.78
2022-09-26T11:07:43.853Z,6.30
2022-09-26T11:13:18.797Z,7.45
2022-09-26T11:18:33.181Z,8.25
2022-09-26T11:23:39.033Z,6.78
2022-09-26T11:29:08.862Z,5.57
2022-09-26T11:34:28.831Z,6.95
2022-09-26T11:39:59.135Z,5.90
2022-09-26T11:45:09.157Z,7.35
2022-09-26T11:50:51.513Z,7.70
2022-09-26T11:56:19.887Z,5.00
2022-09-26T12:01:55.823Z,7.50
2022-09-26T12:07:08.424Z,5.03
2022-09-26T12:12:41.404Z,4.68
2022-09-26T12:18:04.115Z,7.72
2022-09-26T12:23:46.016Z,6.28
2022-09-26T12:29:06.021Z,5.35
2022-09-26T12:34:18.981Z,7.40
2022-09-26T12:39:41.690Z,5.50
2022-09-26T12:45:02.508Z,6.88
2022-09-26T12:50:30.785Z,4.70
2022-09-26T12:55:56.971Z,4.65
2022-09-26T13:01:29.772Z,4.95
2022-09-26T13:07:18.879Z,4.63
2022-09-26T13:12:47.752Z,4.47
2022-09-26T13:17:57.843Z,3.75
2022-09-26T13:23:18.119Z,4.15
2022-09-26T13:28:24.089Z,4.10
2022-09-26T13:33:28.686Z,4.40
2022-09-26T13:38:53.165Z,3.47
2022-09-26T13:44:06.765Z,3.75
2022-09-26T13:49:33.800Z,4.25
2022-09-26T13:54:54.126Z,4.97
2022-09-26T13:59:55.772Z,4.20
2022-09-26T14:05:03.592Z,3.95
2022-09-26T14:10:17.941Z,3.92
2022-09-26T14:15:48.074Z,6.18
2022-09-26T14:21:05.478Z,3.97
2022-09-26T14:26:21.573Z,4.00
2022-09-26T14:31:26.286Z,3.60
2022-09-26T14:36:32.478Z,3.85
2022-09-26T14:41:36.430Z,3.30
2022-09-26T14:46:41.336Z,4.43
2022-09-26T14:51:48.982Z,5.07
2022-09-26T14:57:02.151Z,3.70
2022-09-26T15:02:26.026Z,3.72
2022-09-26T15:07:33.737Z,3.55
2022-09-26T15:12:48.019Z,3.70
2022-09-26T15:17:55.822Z,3.40
2022-09-26T15:22:58.867Z,3.00
2022-09-26T15:28:01.506Z,4.97
2022-09-26T15:33:04.194Z,3.60
2022-09-26T15:38:12.935Z,3.92
2022-09-26T15:43:21.785Z,3.80
2022-09-26T15:48:32.579Z,5.22
2022-09-26T15:53:39.774Z,4.60
2022-09-26T15:58:53.352Z,3.50
2022-09-26T16:03:58.728Z,4.97
2022-09-26T16:09:05.969Z,6.50
2022-09-26T16:14:23.148Z,3.95
2022-09-26T16:19:43.180Z,4.35
2022-09-26T16:24:44.870Z,8.15
2022-09-26T16:29:51.815Z,9.13
2022-09-26T16:34:53.499Z,4.22
2022-09-26T16:39:59.336Z,4.50
2022-09-26T16:45:04.828Z,9.70
2022-09-26T16:50:33.562Z,11.30
2022-09-26T16:55:36.308Z,7.32
2022-09-26T17:00:58.853Z,4.88
2022-09-26T17:06:00.598Z,11.60
2022-09-26T17:11:04.243Z,7.65
2022-09-26T17:16:07.358Z,10.75
2022-09-26T17:21:09.061Z,4.55
2022-09-26T17:26:23.926Z,10.23
2022-09-26T17:31:26.945Z,8.68
2022-09-26T17:36:29.615Z,14.13
2022-09-26T17:41:34.356Z,5.43
2022-09-26T17:46:38.349Z,12.57
2022-09-26T17:51:40.646Z,5.85
2022-09-26T17:56:42.382Z,6.13
2022-09-26T18:01:46.447Z,8.30
2022-09-26T18:06:48.106Z,7.40
2022-09-26T18:11:59.612Z,9.93
2022-09-26T18:17:02.085Z,7.95
2022-09-26T18:22:03.963Z,10.63
2022-09-26T18:27:07.283Z,10.23
2022-09-26T18:32:25.792Z,8.68
2022-09-26T18:37:27.495Z,7.25
2022-09-26T18:42:29.134Z,5.95
2022-09-26T18:47:45.080Z,8.68
2022-09-26T18:52:46.771Z,7.88
2022-09-26T18:58:06.950Z,7.32
2022-09-26T19:03:08.717Z,6.50
2022-09-26T19:08:28.118Z,9.05
2022-09-26T19:13:31.498Z,4.32
2022-09-26T19:18:33.525Z,5.03
2022-09-26T19:23:36.660Z,4.03
2022-09-26T19:28:38.814Z,4.50
2022-09-26T19:33:45.419Z,4.03
2022-09-26T19:38:47.125Z,5.80
2022-09-26T19:43:48.818Z,5.25
2022-09-26T19:48:50.549Z,5.18
2022-09-26T19:53:52.301Z,3.97
2022-09-26T19:58:54.084Z,5.82
2022-09-26T20:03:55.830Z,6.75
2022-09-26T20:09:02.167Z,13.18
2022-09-26T20:14:22.704Z,5.60
2022-09-26T20:19:30.400Z,5.28
2022-09-26T20:24:33.429Z,4.60
2022-09-26T20:29:56.633Z,7.05
2022-09-26T20:35:00.393Z,5.10
2022-09-26T20:40:22.639Z,8.75
2022-09-26T20:45:31.822Z,8.90
2022-09-26T20:50:37.020Z,7.63
2022-09-26T20:55:43.239Z,4.90
2022-09-26T21:00:46.104Z,4.03
2022-09-26T21:05:47.848Z,5.90
2022-09-26T21:10:49.693Z,8.07
2022-09-26T21:15:52.813Z,6.05
2022-09-26T21:20:59.358Z,6.50
2022-09-26T21:26:25.050Z,5.32
2022-09-26T21:31:32.259Z,8.02
2022-09-26T21:36:39.319Z,7.47
2022-09-26T21:41:41.095Z,8.10
2022-09-26T21:46:42.716Z,7.03
2022-09-26T21:51:49.632Z,6.18
2022-09-26T21:56:55.710Z,7.05
2022-09-26T22:01:57.560Z,7.85
2022-09-26T22:06:59.340Z,4.85
2022-09-26T22:12:01.491Z,4.80
2022-09-26T22:17:03.124Z,6.73
2022-09-26T22:22:04.832Z,4.90
2022-09-26T22:27:06.508Z,5.57
2022-09-26T22:32:08.595Z,4.50
2022-09-26T22:37:10.225Z,4.73
2022-09-26T22:42:12.134Z,4.82
2022-09-26T22:47:13.835Z,6.32
2022-09-26T22:52:15.474Z,6.43
2022-09-26T22:57:17.482Z,6.30
2022-09-26T23:02:19.216Z,5.10
2022-09-26T23:07:21.129Z,6.35
2022-09-26T23:12:23.136Z,4.88
2022-09-26T23:17:25.080Z,4.13
2022-09-26T23:22:26.698Z,6.40
2022-09-26T23:27:28.523Z,4.40
2022-09-26T23:32:30.233Z,4.53
2022-09-26T23:37:32.498Z,4.78
2022-09-26T23:42:34.281Z,5.43
2022-09-26T23:47:35.949Z,5.80
2022-09-26T23:52:37.734Z,3.97
2022-09-26T23:57:39.512Z,3.95
